sensor_id;sensor_type;location;lat;lon;timestamp;P1;durP1;ratioP1;P2;durP2;ratioP2
84345;SDS011;74709;53.128;18.020;2024-03-25T00:01:02;8.80;;;5.50;;
84345;SDS011;74709;53.128;18.020;2024-03-25T00:02:14;9.00;;;4.90;;
84345;SDS011;74709;53.128;18.020;2024-03-25T00:03:17;8.00;;;5.30;;
84345;SDS011;74709;53.128;18.020;2024-03-25T00:04:19;12.30;;;5.90;;
84345;SDS011;74709;53.128;18.020;2024-03-25T00:05:24;8.60;;;5.30;;
84345;SDS011;74709;53.128;18.020;2024-03-25T00:06:28;9.40;;;5.50;;
84345;SDS011;74709;53.128;18.020;2024-03-25T00:07:31;10.30;;;5.30;;
84345;SDS011;74709;53.128;18.020;2024-03-25T00:08:34;11.40;;;5.10;;
84345;SDS011;74709;53.128;18.020;2024-03-25T00:09:36;9.20;;;5.10;;
84345;SDS011;74709;53.128;18.020;2024-03-25T00:10:39;10.30;;;5.40;;
84345;SDS011;74709;53.128;18.020;2024-03-25T00:11:41;9.50;;;5.20;;
84345;SDS011;74709;53.128;18.020;2024-03-25T00:12:44;8.50;;;5.10;;
84345;SDS011;74709;53.128;18.020;2024-03-25T00:13:47;9.70;;;5.90;;
84345;SDS011;74709;53.128;18.020;2024-03-25T00:14:50;9.20;;;5.40;;
84345;SDS011;74709;53.128;18.020;2024-03-25T00:15:52;11.90;;;6.00;;
84345;SDS011;74709;53.128;18.020;2024-03-25T00:16:56;10.50;;;5.80;;
84345;SDS011;74709;53.128;18.020;2024-03-25T00:17:59;9.70;;;5.30;;
84345;SDS011;74709;53.128;18.020;2024-03-25T00:19:02;7.60;;;4.70;;
84345;SDS011;74709;53.128;18.020;2024-03-25T00:20:05;10.20;;;5.60;;
84345;SDS011;74709;53.128;18.020;2024-03-25T00:21:12;8.40;;;5.00;;
84345;SDS011;74709;53.128;18.020;2024-03-25T00:22:15;8.50;;;5.30;;
84345;SDS011;74709;53.128;18.020;2024-03-25T00:23:18;9.30;;;5.40;;
84345;SDS011;74709;53.128;18.020;2024-03-25T00:24:20;7.60;;;4.90;;
84345;SDS011;74709;53.128;18.020;2024-03-25T00:25:24;9.80;;;5.60;;
84345;SDS011;74709;53.128;18.020;2024-03-25T00:26:29;10.10;;;5.60;;
84345;SDS011;74709;53.128;18.020;2024-03-25T00:27:33;9.90;;;5.70;;
84345;SDS011;74709;53.128;18.020;2024-03-25T00:28:37;9.40;;;5.70;;
84345;SDS011;74709;53.128;18.020;2024-03-25T00:29:40;8.20;;;5.20;;
84345;SDS011;74709;53.128;18.020;2024-03-25T00:30:43;9.60;;;5.90;;
84345;SDS011;74709;53.128;18.020;2024-03-25T00:31:47;10.40;;;5.80;;
84345;SDS011;74709;53.128;18.020;2024-03-25T00:32:49;9.20;;;5.60;;
84345;SDS011;74709;53.128;18.020;2024-03-25T00:33:53;10.30;;;5.80;;
84345;SDS011;74709;53.128;18.020;2024-03-25T00:34:55;9.50;;;5.60;;
84345;SDS011;74709;53.128;18.020;2024-03-25T00:35:58;9.00;;;5.20;;
84345;SDS011;74709;53.128;18.020;2024-03-25T00:37:01;9.00;;;5.60;;
84345;SDS011;74709;53.128;18.020;2024-03-25T00:38:04;9.90;;;5.60;;
84345;SDS011;74709;53.128;18.020;2024-03-25T00:39:06;12.20;;;5.60;;
84345;SDS011;74709;53.128;18.020;2024-03-25T00:40:10;8.80;;;5.50;;
84345;SDS011;74709;53.128;18.020;2024-03-25T00:41:14;9.10;;;5.60;;
84345;SDS011;74709;53.128;18.020;2024-03-25T00:42:16;8.90;;;5.60;;
84345;SDS011;74709;53.128;18.020;2024-03-25T00:43:19;7.80;;;5.30;;
84345;SDS011;74709;53.128;18.020;2024-03-25T00:44:22;8.40;;;5.20;;
84345;SDS011;74709;53.128;18.020;2024-03-25T00:45:24;11.10;;;5.90;;
84345;SDS011;74709;53.128;18.020;2024-03-25T00:46:32;9.60;;;6.00;;
84345;SDS011;74709;53.128;18.020;2024-03-25T00:47:35;8.50;;;6.00;;
84345;SDS011;74709;53.128;18.020;2024-03-25T00:48:38;11.60;;;6.60;;
84345;SDS011;74709;53.128;18.020;2024-03-25T00:49:40;9.50;;;5.40;;
84345;SDS011;74709;53.128;18.020;2024-03-25T00:50:43;10.10;;;5.30;;
84345;SDS011;74709;53.128;18.020;2024-03-25T00:51:45;9.80;;;6.10;;
84345;SDS011;74709;53.128;18.020;2024-03-25T00:52:49;9.80;;;5.90;;
84345;SDS011;74709;53.128;18.020;2024-03-25T00:53:51;12.40;;;6.60;;
84345;SDS011;74709;53.128;18.020;2024-03-25T00:54:54;11.30;;;6.20;;
84345;SDS011;74709;53.128;18.020;2024-03-25T00:55:57;12.30;;;6.80;;
84345;SDS011;74709;53.128;18.020;2024-03-25T00:56:59;9.90;;;5.90;;
84345;SDS011;74709;53.128;18.020;2024-03-25T00:58:02;11.60;;;6.30;;
84345;SDS011;74709;53.128;18.020;2024-03-25T00:59:05;10.50;;;6.70;;
84345;SDS011;74709;53.128;18.020;2024-03-25T01:00:08;11.20;;;6.40;;
84345;SDS011;74709;53.128;18.020;2024-03-25T01:01:11;11.80;;;6.40;;
84345;SDS011;74709;53.128;18.020;2024-03-25T01:02:14;10.10;;;6.40;;
84345;SDS011;74709;53.128;18.020;2024-03-25T01:03:17;10.20;;;6.00;;
84345;SDS011;74709;53.128;18.020;2024-03-25T01:04:20;9.10;;;5.90;;
84345;SDS011;74709;53.128;18.020;2024-03-25T01:05:22;12.10;;;6.50;;
84345;SDS011;74709;53.128;18.020;2024-03-25T01:06:25;11.70;;;6.10;;
84345;SDS011;74709;53.128;18.020;2024-03-25T01:07:28;12.40;;;6.70;;
84345;SDS011;74709;53.128;18.020;2024-03-25T01:08:30;10.10;;;5.90;;
84345;SDS011;74709;53.128;18.020;2024-03-25T01:09:33;9.70;;;6.40;;
84345;SDS011;74709;53.128;18.020;2024-03-25T01:10:35;13.30;;;6.70;;
84345;SDS011;74709;53.128;18.020;2024-03-25T01:11:38;11.50;;;6.40;;
84345;SDS011;74709;53.128;18.020;2024-03-25T01:12:40;10.10;;;6.90;;
84345;SDS011;74709;53.128;18.020;2024-03-25T01:13:43;10.70;;;6.20;;
84345;SDS011;74709;53.128;18.020;2024-03-25T01:14:46;11.10;;;6.80;;
84345;SDS011;74709;53.128;18.020;2024-03-25T01:15:49;8.60;;;5.70;;
84345;SDS011;74709;53.128;18.020;2024-03-25T01:16:52;10.40;;;6.90;;
84345;SDS011;74709;53.128;18.020;2024-03-25T01:17:54;12.50;;;7.60;;
84345;SDS011;74709;53.128;18.020;2024-03-25T01:18:57;11.40;;;6.50;;
84345;SDS011;74709;53.128;18.020;2024-03-25T01:20:00;10.50;;;6.20;;
84345;SDS011;74709;53.128;18.020;2024-03-25T01:21:03;11.40;;;6.60;;
84345;SDS011;74709;53.128;18.020;2024-03-25T01:22:07;13.60;;;7.50;;
84345;SDS011;74709;53.128;18.020;2024-03-25T01:23:09;10.70;;;6.40;;
84345;SDS011;74709;53.128;18.020;2024-03-25T01:24:12;13.40;;;6.50;;
84345;SDS011;74709;53.128;18.020;2024-03-25T01:25:14;11.30;;;7.10;;
84345;SDS011;74709;53.128;18.020;2024-03-25T01:26:17;13.60;;;6.90;;
84345;SDS011;74709;53.128;18.020;2024-03-25T01:27:20;9.40;;;6.60;;
84345;SDS011;74709;53.128;18.020;2024-03-25T01:28:23;14.80;;;7.70;;
84345;SDS011;74709;53.128;18.020;2024-03-25T01:29:25;10.90;;;6.60;;
84345;SDS011;74709;53.128;18.020;2024-03-25T01:30:28;14.00;;;7.10;;
84345;SDS011;74709;53.128;18.020;2024-03-25T01:31:31;12.90;;;7.40;;
84345;SDS011;74709;53.128;18.020;2024-03-25T01:32:34;15.80;;;7.00;;
84345;SDS011;74709;53.128;18.020;2024-03-25T01:33:36;11.50;;;7.20;;
84345;SDS011;74709;53.128;18.020;2024-03-25T01:34:39;10.30;;;6.10;;
84345;SDS011;74709;53.128;18.020;2024-03-25T01:35:42;9.90;;;6.00;;
84345;SDS011;74709;53.128;18.020;2024-03-25T01:36:44;12.10;;;7.50;;
84345;SDS011;74709;53.128;18.020;2024-03-25T01:37:47;13.60;;;8.00;;
84345;SDS011;74709;53.128;18.020;2024-03-25T01:38:51;13.60;;;8.60;;
84345;SDS011;74709;53.128;18.020;2024-03-25T01:39:54;12.00;;;6.60;;
84345;SDS011;74709;53.128;18.020;2024-03-25T01:41:06;11.30;;;7.30;;
84345;SDS011;74709;53.128;18.020;2024-03-25T01:42:10;14.40;;;7.70;;
84345;SDS011;74709;53.128;18.020;2024-03-25T01:43:12;11.30;;;6.50;;
84345;SDS011;74709;53.128;18.020;2024-03-25T01:44:15;15.00;;;7.90;;
84345;SDS011;74709;53.128;18.020;2024-03-25T01:45:18;12.80;;;6.90;;
84345;SDS011;74709;53.128;18.020;2024-03-25T01:46:21;11.60;;;7.10;;
84345;SDS011;74709;53.128;18.020;2024-03-25T01:47:24;12.00;;;7.60;;
84345;SDS011;74709;53.128;18.020;2024-03-25T01:48:27;12.70;;;7.30;;
84345;SDS011;74709;53.128;18.020;2024-03-25T01:49:30;12.30;;;7.30;;
84345;SDS011;74709;53.128;18.020;2024-03-25T01:50:35;13.70;;;7.30;;
84345;SDS011;74709;53.128;18.020;2024-03-25T01:51:38;11.50;;;6.90;;
84345;SDS011;74709;53.128;18.020;2024-03-25T01:52:41;9.90;;;6.90;;
84345;SDS011;74709;53.128;18.020;2024-03-25T01:53:44;15.30;;;7.60;;
84345;SDS011;74709;53.128;18.020;2024-03-25T01:54:47;12.40;;;7.40;;
84345;SDS011;74709;53.128;18.020;2024-03-25T01:55:49;13.40;;;7.90;;
84345;SDS011;74709;53.128;18.020;2024-03-25T01:56:56;11.00;;;7.00;;
84345;SDS011;74709;53.128;18.020;2024-03-25T01:57:59;12.70;;;7.70;;
84345;SDS011;74709;53.128;18.020;2024-03-25T01:59:02;12.20;;;6.90;;
84345;SDS011;74709;53.128;18.020;2024-03-25T02:00:05;10.40;;;7.20;;
84345;SDS011;74709;53.128;18.020;2024-03-25T02:01:08;12.70;;;7.70;;
84345;SDS011;74709;53.128;18.020;2024-03-25T02:02:16;13.20;;;7.90;;
84345;SDS011;74709;53.128;18.020;2024-03-25T02:03:18;13.80;;;7.80;;
84345;SDS011;74709;53.128;18.020;2024-03-25T02:04:21;14.60;;;8.60;;
84345;SDS011;74709;53.128;18.020;2024-03-25T02:05:24;12.40;;;7.90;;
84345;SDS011;74709;53.128;18.020;2024-03-25T02:06:27;12.70;;;7.00;;
84345;SDS011;74709;53.128;18.020;2024-03-25T02:08:33;14.40;;;7.60;;
84345;SDS011;74709;53.128;18.020;2024-03-25T02:09:35;15.40;;;7.70;;
84345;SDS011;74709;53.128;18.020;2024-03-25T02:10:38;12.70;;;7.30;;
84345;SDS011;74709;53.128;18.020;2024-03-25T02:11:41;13.30;;;7.80;;
84345;SDS011;74709;53.128;18.020;2024-03-25T02:12:44;14.30;;;7.60;;
84345;SDS011;74709;53.128;18.020;2024-03-25T02:13:48;14.60;;;8.30;;
84345;SDS011;74709;53.128;18.020;2024-03-25T02:14:50;12.90;;;7.70;;
84345;SDS011;74709;53.128;18.020;2024-03-25T02:15:53;11.90;;;7.40;;
84345;SDS011;74709;53.128;18.020;2024-03-25T02:16:57;15.40;;;9.10;;
84345;SDS011;74709;53.128;18.020;2024-03-25T02:17:59;15.20;;;7.90;;
84345;SDS011;74709;53.128;18.020;2024-03-25T02:19:02;13.70;;;7.80;;
84345;SDS011;74709;53.128;18.020;2024-03-25T02:20:05;14.50;;;8.50;;
84345;SDS011;74709;53.128;18.020;2024-03-25T02:21:10;13.50;;;7.50;;
84345;SDS011;74709;53.128;18.020;2024-03-25T02:22:13;17.50;;;8.50;;
84345;SDS011;74709;53.128;18.020;2024-03-25T02:23:15;13.30;;;7.90;;
84345;SDS011;74709;53.128;18.020;2024-03-25T02:24:18;14.10;;;7.70;;
84345;SDS011;74709;53.128;18.020;2024-03-25T02:25:23;14.50;;;8.20;;
84345;SDS011;74709;53.128;18.020;2024-03-25T02:26:27;14.60;;;7.80;;
84345;SDS011;74709;53.128;18.020;2024-03-25T02:27:30;15.00;;;8.50;;
84345;SDS011;74709;53.128;18.020;2024-03-25T02:28:34;15.70;;;8.40;;
84345;SDS011;74709;53.128;18.020;2024-03-25T02:29:37;16.30;;;8.60;;
84345;SDS011;74709;53.128;18.020;2024-03-25T02:30:39;14.60;;;8.00;;
84345;SDS011;74709;53.128;18.020;2024-03-25T02:31:42;16.50;;;8.80;;
84345;SDS011;74709;53.128;18.020;2024-03-25T02:32:45;15.90;;;8.50;;
84345;SDS011;74709;53.128;18.020;2024-03-25T02:33:47;12.80;;;7.90;;
84345;SDS011;74709;53.128;18.020;2024-03-25T02:34:50;15.50;;;7.90;;
84345;SDS011;74709;53.128;18.020;2024-03-25T02:35:53;15.40;;;8.30;;
84345;SDS011;74709;53.128;18.020;2024-03-25T02:36:56;14.90;;;8.70;;
84345;SDS011;74709;53.128;18.020;2024-03-25T02:37:58;15.00;;;7.30;;
84345;SDS011;74709;53.128;18.020;2024-03-25T02:39:01;14.30;;;8.40;;
84345;SDS011;74709;53.128;18.020;2024-03-25T02:40:05;16.80;;;9.00;;
84345;SDS011;74709;53.128;18.020;2024-03-25T02:41:09;15.00;;;8.90;;
84345;SDS011;74709;53.128;18.020;2024-03-25T02:42:12;15.40;;;7.90;;
84345;SDS011;74709;53.128;18.020;2024-03-25T02:43:15;16.10;;;8.40;;
84345;SDS011;74709;53.128;18.020;2024-03-25T02:44:18;14.00;;;8.60;;
84345;SDS011;74709;53.128;18.020;2024-03-25T02:45:21;15.40;;;8.00;;
84345;SDS011;74709;53.128;18.020;2024-03-25T02:46:23;13.70;;;7.90;;
84345;SDS011;74709;53.128;18.020;2024-03-25T02:47:26;15.40;;;8.30;;
84345;SDS011;74709;53.128;18.020;2024-03-25T02:48:28;14.20;;;8.10;;
84345;SDS011;74709;53.128;18.020;2024-03-25T02:49:31;16.60;;;8.80;;
84345;SDS011;74709;53.128;18.020;2024-03-25T02:50:34;13.20;;;7.60;;
84345;SDS011;74709;53.128;18.020;2024-03-25T02:51:36;17.50;;;8.30;;
84345;SDS011;74709;53.128;18.020;2024-03-25T02:52:39;16.70;;;9.10;;
84345;SDS011;74709;53.128;18.020;2024-03-25T02:53:41;15.10;;;8.60;;
84345;SDS011;74709;53.128;18.020;2024-03-25T02:54:44;12.90;;;7.50;;
84345;SDS011;74709;53.128;18.020;2024-03-25T02:55:46;13.60;;;8.30;;
84345;SDS011;74709;53.128;18.020;2024-03-25T02:56:49;14.30;;;7.90;;
84345;SDS011;74709;53.128;18.020;2024-03-25T02:57:51;14.20;;;8.90;;
84345;SDS011;74709;53.128;18.020;2024-03-25T02:58:54;15.90;;;8.50;;
84345;SDS011;74709;53.128;18.020;2024-03-25T02:59:56;16.60;;;8.30;;
84345;SDS011;74709;53.128;18.020;2024-03-25T03:00:59;17.30;;;9.40;;
84345;SDS011;74709;53.128;18.020;2024-03-25T03:02:02;16.80;;;9.00;;
84345;SDS011;74709;53.128;18.020;2024-03-25T03:03:04;14.60;;;8.20;;
84345;SDS011;74709;53.128;18.020;2024-03-25T03:04:07;14.40;;;8.70;;
84345;SDS011;74709;53.128;18.020;2024-03-25T03:05:09;12.30;;;8.00;;
84345;SDS011;74709;53.128;18.020;2024-03-25T03:06:12;15.20;;;8.50;;
84345;SDS011;74709;53.128;18.020;2024-03-25T03:07:14;16.50;;;8.50;;
84345;SDS011;74709;53.128;18.020;2024-03-25T03:08:17;14.40;;;8.40;;
84345;SDS011;74709;53.128;18.020;2024-03-25T03:09:19;15.00;;;9.00;;
84345;SDS011;74709;53.128;18.020;2024-03-25T03:10:22;18.00;;;9.20;;
84345;SDS011;74709;53.128;18.020;2024-03-25T03:11:25;13.30;;;8.70;;
84345;SDS011;74709;53.128;18.020;2024-03-25T03:12:27;16.10;;;9.60;;
84345;SDS011;74709;53.128;18.020;2024-03-25T03:13:30;16.30;;;9.30;;
84345;SDS011;74709;53.128;18.020;2024-03-25T03:14:32;17.20;;;9.20;;
84345;SDS011;74709;53.128;18.020;2024-03-25T03:15:35;15.80;;;9.60;;
84345;SDS011;74709;53.128;18.020;2024-03-25T03:16:37;14.60;;;9.00;;
84345;SDS011;74709;53.128;18.020;2024-03-25T03:17:40;15.00;;;8.30;;
84345;SDS011;74709;53.128;18.020;2024-03-25T03:18:42;15.50;;;9.60;;
84345;SDS011;74709;53.128;18.020;2024-03-25T03:19:45;17.10;;;9.00;;
84345;SDS011;74709;53.128;18.020;2024-03-25T03:20:47;16.10;;;9.10;;
84345;SDS011;74709;53.128;18.020;2024-03-25T03:21:51;17.00;;;9.00;;
84345;SDS011;74709;53.128;18.020;2024-03-25T03:22:54;16.80;;;8.60;;
84345;SDS011;74709;53.128;18.020;2024-03-25T03:23:57;17.60;;;9.40;;
84345;SDS011;74709;53.128;18.020;2024-03-25T03:25:00;17.10;;;9.20;;
84345;SDS011;74709;53.128;18.020;2024-03-25T03:26:02;17.60;;;9.70;;
84345;SDS011;74709;53.128;18.020;2024-03-25T03:27:05;17.60;;;9.40;;
84345;SDS011;74709;53.128;18.020;2024-03-25T03:28:07;18.60;;;9.30;;
84345;SDS011;74709;53.128;18.020;2024-03-25T03:29:10;17.00;;;9.90;;
84345;SDS011;74709;53.128;18.020;2024-03-25T03:30:13;16.40;;;8.90;;
84345;SDS011;74709;53.128;18.020;2024-03-25T03:31:15;18.30;;;10.50;;
84345;SDS011;74709;53.128;18.020;2024-03-25T03:32:18;17.10;;;9.80;;
84345;SDS011;74709;53.128;18.020;2024-03-25T03:33:20;22.10;;;10.80;;
84345;SDS011;74709;53.128;18.020;2024-03-25T03:34:23;18.60;;;10.00;;
84345;SDS011;74709;53.128;18.020;2024-03-25T03:35:26;18.90;;;10.20;;
84345;SDS011;74709;53.128;18.020;2024-03-25T03:36:28;16.50;;;9.80;;
84345;SDS011;74709;53.128;18.020;2024-03-25T03:37:31;17.70;;;9.60;;
84345;SDS011;74709;53.128;18.020;2024-03-25T03:38:33;18.20;;;9.60;;
84345;SDS011;74709;53.128;18.020;2024-03-25T03:39:36;16.60;;;9.50;;
84345;SDS011;74709;53.128;18.020;2024-03-25T03:40:38;17.30;;;9.80;;
84345;SDS011;74709;53.128;18.020;2024-03-25T03:41:41;17.20;;;9.40;;
84345;SDS011;74709;53.128;18.020;2024-03-25T03:42:43;19.00;;;10.20;;
84345;SDS011;74709;53.128;18.020;2024-03-25T03:43:46;16.00;;;9.50;;
84345;SDS011;74709;53.128;18.020;2024-03-25T03:44:49;19.60;;;9.90;;
84345;SDS011;74709;53.128;18.020;2024-03-25T03:45:51;20.20;;;10.20;;
84345;SDS011;74709;53.128;18.020;2024-03-25T03:46:54;19.10;;;10.70;;
84345;SDS011;74709;53.128;18.020;2024-03-25T03:47:56;20.00;;;10.90;;
84345;SDS011;74709;53.128;18.020;2024-03-25T03:48:59;17.00;;;10.60;;
84345;SDS011;74709;53.128;18.020;2024-03-25T03:50:02;16.20;;;9.20;;
84345;SDS011;74709;53.128;18.020;2024-03-25T03:51:05;17.40;;;9.80;;
84345;SDS011;74709;53.128;18.020;2024-03-25T03:53:11;16.30;;;9.40;;
84345;SDS011;74709;53.128;18.020;2024-03-25T03:54:14;17.40;;;9.70;;
84345;SDS011;74709;53.128;18.020;2024-03-25T03:55:16;18.30;;;9.20;;
84345;SDS011;74709;53.128;18.020;2024-03-25T03:56:19;17.00;;;10.50;;
84345;SDS011;74709;53.128;18.020;2024-03-25T03:57:22;17.90;;;10.20;;
84345;SDS011;74709;53.128;18.020;2024-03-25T03:58:24;14.90;;;9.80;;
84345;SDS011;74709;53.128;18.020;2024-03-25T03:59:27;16.40;;;9.40;;
84345;SDS011;74709;53.128;18.020;2024-03-25T04:00:33;17.40;;;9.80;;
84345;SDS011;74709;53.128;18.020;2024-03-25T04:01:37;16.70;;;10.00;;
84345;SDS011;74709;53.128;18.020;2024-03-25T04:02:40;18.40;;;10.50;;
84345;SDS011;74709;53.128;18.020;2024-03-25T04:03:43;18.60;;;9.50;;
84345;SDS011;74709;53.128;18.020;2024-03-25T04:04:47;18.00;;;10.00;;
84345;SDS011;74709;53.128;18.020;2024-03-25T04:05:49;17.20;;;9.80;;
84345;SDS011;74709;53.128;18.020;2024-03-25T04:06:52;19.50;;;9.60;;
84345;SDS011;74709;53.128;18.020;2024-03-25T04:07:55;23.50;;;11.20;;
84345;SDS011;74709;53.128;18.020;2024-03-25T04:08:58;17.40;;;10.60;;
84345;SDS011;74709;53.128;18.020;2024-03-25T04:10:00;18.80;;;9.80;;
84345;SDS011;74709;53.128;18.020;2024-03-25T04:11:03;18.00;;;10.30;;
84345;SDS011;74709;53.128;18.020;2024-03-25T04:12:08;18.30;;;10.10;;
84345;SDS011;74709;53.128;18.020;2024-03-25T04:13:10;16.10;;;9.90;;
84345;SDS011;74709;53.128;18.020;2024-03-25T04:14:13;17.80;;;10.20;;
84345;SDS011;74709;53.128;18.020;2024-03-25T04:15:16;17.00;;;9.80;;
84345;SDS011;74709;53.128;18.020;2024-03-25T04:16:20;16.60;;;9.70;;
84345;SDS011;74709;53.128;18.020;2024-03-25T04:17:23;15.90;;;9.70;;
84345;SDS011;74709;53.128;18.020;2024-03-25T04:18:26;18.00;;;10.40;;
84345;SDS011;74709;53.128;18.020;2024-03-25T04:19:30;17.80;;;10.20;;
84345;SDS011;74709;53.128;18.020;2024-03-25T04:20:37;18.70;;;9.60;;
84345;SDS011;74709;53.128;18.020;2024-03-25T04:21:43;17.20;;;10.10;;
84345;SDS011;74709;53.128;18.020;2024-03-25T04:22:47;15.30;;;9.60;;
84345;SDS011;74709;53.128;18.020;2024-03-25T04:23:50;17.60;;;9.90;;
84345;SDS011;74709;53.128;18.020;2024-03-25T04:24:53;17.40;;;9.70;;
84345;SDS011;74709;53.128;18.020;2024-03-25T04:25:55;16.20;;;9.80;;
84345;SDS011;74709;53.128;18.020;2024-03-25T04:26:57;15.00;;;9.80;;
84345;SDS011;74709;53.128;18.020;2024-03-25T04:28:00;15.00;;;8.60;;
84345;SDS011;74709;53.128;18.020;2024-03-25T04:29:02;16.50;;;9.70;;
84345;SDS011;74709;53.128;18.020;2024-03-25T04:30:06;15.30;;;8.40;;
84345;SDS011;74709;53.128;18.020;2024-03-25T04:31:10;16.50;;;9.50;;
84345;SDS011;74709;53.128;18.020;2024-03-25T04:32:12;15.40;;;9.60;;
84345;SDS011;74709;53.128;18.020;2024-03-25T04:33:15;15.60;;;9.70;;
84345;SDS011;74709;53.128;18.020;2024-03-25T04:34:17;16.90;;;9.70;;
84345;SDS011;74709;53.128;18.020;2024-03-25T04:35:20;15.50;;;9.10;;
84345;SDS011;74709;53.128;18.020;2024-03-25T04:36:22;17.10;;;9.70;;
84345;SDS011;74709;53.128;18.020;2024-03-25T04:37:25;18.70;;;9.70;;
84345;SDS011;74709;53.128;18.020;2024-03-25T04:38:30;18.30;;;9.00;;
84345;SDS011;74709;53.128;18.020;2024-03-25T04:39:32;17.10;;;10.30;;
84345;SDS011;74709;53.128;18.020;2024-03-25T04:40:35;17.70;;;9.60;;
84345;SDS011;74709;53.128;18.020;2024-03-25T04:41:38;15.70;;;9.80;;
84345;SDS011;74709;53.128;18.020;2024-03-25T04:42:40;17.20;;;9.70;;
84345;SDS011;74709;53.128;18.020;2024-03-25T04:43:43;18.40;;;10.00;;
84345;SDS011;74709;53.128;18.020;2024-03-25T04:44:46;16.10;;;9.90;;
84345;SDS011;74709;53.128;18.020;2024-03-25T04:45:49;16.10;;;9.70;;
84345;SDS011;74709;53.128;18.020;2024-03-25T04:46:51;19.20;;;9.90;;
84345;SDS011;74709;53.128;18.020;2024-03-25T04:47:54;21.00;;;11.00;;
84345;SDS011;74709;53.128;18.020;2024-03-25T04:48:57;15.70;;;9.60;;
84345;SDS011;74709;53.128;18.020;2024-03-25T04:50:00;16.30;;;9.20;;
84345;SDS011;74709;53.128;18.020;2024-03-25T04:51:02;18.40;;;9.00;;
84345;SDS011;74709;53.128;18.020;2024-03-25T04:52:05;16.90;;;9.00;;
84345;SDS011;74709;53.128;18.020;2024-03-25T04:53:08;16.10;;;9.20;;
84345;SDS011;74709;53.128;18.020;2024-03-25T04:54:10;14.90;;;9.20;;
84345;SDS011;74709;53.128;18.020;2024-03-25T04:55:13;20.10;;;9.90;;
84345;SDS011;74709;53.128;18.020;2024-03-25T04:56:15;16.00;;;9.20;;
84345;SDS011;74709;53.128;18.020;2024-03-25T04:57:18;17.70;;;9.60;;
84345;SDS011;74709;53.128;18.020;2024-03-25T04:58:20;17.30;;;8.30;;
84345;SDS011;74709;53.128;18.020;2024-03-25T04:59:23;16.20;;;10.10;;
84345;SDS011;74709;53.128;18.020;2024-03-25T05:00:26;16.10;;;9.10;;
84345;SDS011;74709;53.128;18.020;2024-03-25T05:01:29;16.90;;;9.10;;
84345;SDS011;74709;53.128;18.020;2024-03-25T05:02:31;14.80;;;8.70;;
84345;SDS011;74709;53.128;18.020;2024-03-25T05:03:34;14.00;;;7.70;;
84345;SDS011;74709;53.128;18.020;2024-03-25T05:04:36;16.10;;;9.30;;
84345;SDS011;74709;53.128;18.020;2024-03-25T05:05:39;13.50;;;8.70;;
84345;SDS011;74709;53.128;18.020;2024-03-25T05:06:41;13.40;;;7.80;;
84345;SDS011;74709;53.128;18.020;2024-03-25T05:07:44;14.30;;;8.40;;
84345;SDS011;74709;53.128;18.020;2024-03-25T05:08:46;15.80;;;9.60;;
84345;SDS011;74709;53.128;18.020;2024-03-25T05:09:49;13.70;;;8.60;;
84345;SDS011;74709;53.128;18.020;2024-03-25T05:10:51;12.30;;;7.60;;
84345;SDS011;74709;53.128;18.020;2024-03-25T05:11:54;15.20;;;8.70;;
84345;SDS011;74709;53.128;18.020;2024-03-25T05:12:56;14.20;;;8.90;;
84345;SDS011;74709;53.128;18.020;2024-03-25T05:13:59;15.80;;;9.20;;
84345;SDS011;74709;53.128;18.020;2024-03-25T05:15:02;15.10;;;9.30;;
84345;SDS011;74709;53.128;18.020;2024-03-25T05:16:05;14.30;;;8.10;;
84345;SDS011;74709;53.128;18.020;2024-03-25T05:17:08;16.00;;;8.80;;
84345;SDS011;74709;53.128;18.020;2024-03-25T05:18:11;14.70;;;9.00;;
84345;SDS011;74709;53.128;18.020;2024-03-25T05:19:14;15.50;;;8.90;;
84345;SDS011;74709;53.128;18.020;2024-03-25T05:20:16;13.30;;;8.30;;
84345;SDS011;74709;53.128;18.020;2024-03-25T05:21:19;14.70;;;8.60;;
84345;SDS011;74709;53.128;18.020;2024-03-25T05:22:22;15.10;;;8.70;;
84345;SDS011;74709;53.128;18.020;2024-03-25T05:23:24;16.20;;;9.40;;
84345;SDS011;74709;53.128;18.020;2024-03-25T05:24:27;15.70;;;8.90;;
84345;SDS011;74709;53.128;18.020;2024-03-25T05:25:30;13.50;;;8.80;;
84345;SDS011;74709;53.128;18.020;2024-03-25T05:26:33;15.40;;;8.50;;
84345;SDS011;74709;53.128;18.020;2024-03-25T05:27:35;12.70;;;9.00;;
84345;SDS011;74709;53.128;18.020;2024-03-25T05:28:38;15.40;;;9.10;;
84345;SDS011;74709;53.128;18.020;2024-03-25T05:29:40;13.60;;;8.50;;
84345;SDS011;74709;53.128;18.020;2024-03-25T05:30:43;16.30;;;9.00;;
84345;SDS011;74709;53.128;18.020;2024-03-25T05:31:56;14.40;;;9.00;;
84345;SDS011;74709;53.128;18.020;2024-03-25T05:33:02;14.10;;;8.70;;
84345;SDS011;74709;53.128;18.020;2024-03-25T05:34:05;14.90;;;8.60;;
84345;SDS011;74709;53.128;18.020;2024-03-25T05:35:11;18.90;;;10.40;;
84345;SDS011;74709;53.128;18.020;2024-03-25T05:36:14;14.20;;;8.90;;
84345;SDS011;74709;53.128;18.020;2024-03-25T05:37:16;15.30;;;9.00;;
84345;SDS011;74709;53.128;18.020;2024-03-25T05:38:19;12.40;;;8.10;;
84345;SDS011;74709;53.128;18.020;2024-03-25T05:39:21;13.50;;;8.40;;
84345;SDS011;74709;53.128;18.020;2024-03-25T05:40:24;15.00;;;9.20;;
84345;SDS011;74709;53.128;18.020;2024-03-25T05:41:27;15.30;;;8.40;;
84345;SDS011;74709;53.128;18.020;2024-03-25T05:42:29;14.00;;;8.90;;
84345;SDS011;74709;53.128;18.020;2024-03-25T05:43:32;17.70;;;8.40;;
84345;SDS011;74709;53.128;18.020;2024-03-25T05:44:35;15.50;;;8.80;;
84345;SDS011;74709;53.128;18.020;2024-03-25T05:45:37;18.30;;;9.50;;
84345;SDS011;74709;53.128;18.020;2024-03-25T05:46:40;15.40;;;8.90;;
84345;SDS011;74709;53.128;18.020;2024-03-25T05:47:42;13.50;;;8.90;;
84345;SDS011;74709;53.128;18.020;2024-03-25T05:48:45;14.90;;;8.30;;
84345;SDS011;74709;53.128;18.020;2024-03-25T05:52:01;14.80;;;8.60;;
84345;SDS011;74709;53.128;18.020;2024-03-25T05:53:04;12.40;;;7.70;;
84345;SDS011;74709;53.128;18.020;2024-03-25T05:54:07;12.70;;;8.00;;
84345;SDS011;74709;53.128;18.020;2024-03-25T05:55:09;14.60;;;7.50;;
84345;SDS011;74709;53.128;18.020;2024-03-25T05:56:12;14.20;;;8.60;;
84345;SDS011;74709;53.128;18.020;2024-03-25T05:57:15;14.20;;;8.40;;
84345;SDS011;74709;53.128;18.020;2024-03-25T05:58:17;13.50;;;8.90;;
84345;SDS011;74709;53.128;18.020;2024-03-25T05:59:20;18.30;;;9.30;;
84345;SDS011;74709;53.128;18.020;2024-03-25T06:00:22;12.80;;;8.10;;
84345;SDS011;74709;53.128;18.020;2024-03-25T06:01:26;14.20;;;7.80;;
84345;SDS011;74709;53.128;18.020;2024-03-25T06:02:29;13.30;;;8.20;;
84345;SDS011;74709;53.128;18.020;2024-03-25T06:03:32;13.60;;;8.00;;
84345;SDS011;74709;53.128;18.020;2024-03-25T06:04:35;13.30;;;8.10;;
84345;SDS011;74709;53.128;18.020;2024-03-25T06:05:38;13.10;;;7.50;;
84345;SDS011;74709;53.128;18.020;2024-03-25T06:06:40;11.70;;;7.90;;
84345;SDS011;74709;53.128;18.020;2024-03-25T06:07:43;14.70;;;8.30;;
84345;SDS011;74709;53.128;18.020;2024-03-25T06:08:45;14.00;;;8.30;;
84345;SDS011;74709;53.128;18.020;2024-03-25T06:09:48;14.80;;;9.10;;
84345;SDS011;74709;53.128;18.020;2024-03-25T06:10:51;14.00;;;7.60;;
84345;SDS011;74709;53.128;18.020;2024-03-25T06:11:54;12.20;;;8.00;;
84345;SDS011;74709;53.128;18.020;2024-03-25T06:12:57;14.00;;;8.60;;